Time;durP1;ratioP1;P1;durP2;ratioP2;P2;SDS_P1;SDS_P2;PMS_P1;PMS_P2;Temp;Humidity;BMP_temperature;BMP_pressure;BME280_temperature;BME280_humidity;BME280_pressure;Samples;Min_cycle;Max_cycle;Signal;HPM_P1;HPM_P2
2021/11/26 00:00:57;;;;;;;4.68;1.80;;;2.80;99.90;;;;;;5070662;28;20074;-55
2021/11/26 00:03:22;;;;;;;4.53;1.70;;;2.80;99.90;;;;;;5070041;28;20130;-53
2021/11/26 00:05:48;;;;;;;6.38;1.80;;;2.80;99.90;;;;;;5069700;28;20032;-53
2021/11/26 00:08:14;;;;;;;5.68;1.60;;;2.80;99.90;;;;;;5070154;28;20024;-55
2021/11/26 00:10:39;;;;;;;5.90;1.90;;;2.90;99.90;;;;;;5070030;28;20029;-56
2021/11/26 00:13:08;;;;;;;11.73;2.08;;;2.90;99.90;;;;;;5070186;28;20063;-54
2021/11/26 00:18:08;;;;;;;6.72;1.67;;;2.90;99.90;;;;;;5069373;28;20036;-56
2021/11/26 00:20:35;;;;;;;6.13;2.20;;;2.90;99.90;;;;;;5070258;28;20028;-55
2021/11/26 00:23:00;;;;;;;5.18;1.42;;;2.90;99.90;;;;;;5054679;28;20025;-54
2021/11/26 00:25:26;;;;;;;2.40;1.33;;;2.90;99.90;;;;;;5070266;28;20130;-53
2021/11/26 00:27:52;;;;;;;5.45;1.95;;;2.90;99.90;;;;;;5070141;28;20034;-56
2021/11/26 00:30:17;;;;;;;5.53;1.90;;;2.90;99.90;;;;;;5070243;28;20025;-51
2021/11/26 00:32:44;;;;;;;6.03;1.73;;;2.90;99.90;;;;;;5051821;28;20082;-51
2021/11/26 00:35:09;;;;;;;6.50;1.52;;;2.90;99.90;;;;;;5069727;28;20570;-53
2021/11/26 00:37:35;;;;;;;7.32;1.33;;;2.90;99.90;;;;;;5069212;28;20040;-52
2021/11/26 00:40:01;;;;;;;5.18;1.42;;;2.90;99.90;;;;;;5070324;28;20048;-54
2021/11/26 00:42:26;;;;;;;5.75;1.38;;;2.90;99.90;;;;;;5070010;28;20033;-51
2021/11/26 00:44:52;;;;;;;2.67;1.13;;;2.90;99.90;;;;;;5069582;28;20032;-53
2021/11/26 00:47:18;;;;;;;6.22;2.05;;;2.90;99.90;;;;;;5068947;28;20619;-52
2021/11/26 00:49:43;;;;;;;4.72;0.95;;;2.90;99.90;;;;;;5107443;23;20140;-52
2021/11/26 00:52:09;;;;;;;6.95;1.40;;;2.90;99.90;;;;;;5062171;28;20024;-52
2021/11/26 00:54:35;;;;;;;4.25;1.10;;;3.00;99.90;;;;;;5049940;28;20025;-54
2021/11/26 00:57:02;;;;;;;2.30;0.73;;;2.90;99.90;;;;;;5049421;28;20021;-52
2021/11/26 00:59:27;;;;;;;6.13;1.00;;;3.00;99.90;;;;;;5049529;28;20029;-54
2021/11/26 01:01:53;;;;;;;2.47;0.70;;;2.90;99.90;;;;;;5046679;28;20024;-58
2021/11/26 01:04:19;;;;;;;2.35;0.80;;;2.90;99.90;;;;;;5037215;28;20029;-54
2021/11/26 01:06:45;;;;;;;2.95;0.75;;;3.00;99.90;;;;;;5027613;28;20025;-53
2021/11/26 01:09:10;;;;;;;1.80;0.85;;;3.00;99.90;;;;;;5019390;28;20078;-53
2021/11/26 01:11:36;;;;;;;2.05;0.70;;;2.90;99.90;;;;;;5040000;28;20528;-53
2021/11/26 01:14:01;;;;;;;2.03;0.98;;;2.90;99.90;;;;;;5034253;28;20155;-53
2021/11/26 01:16:27;;;;;;;3.50;0.70;;;2.90;99.90;;;;;;5044295;28;20032;-49
2021/11/26 01:18:53;;;;;;;1.45;0.60;;;2.90;99.90;;;;;;5048453;28;20506;-53
2021/11/26 01:21:19;;;;;;;5.15;1.23;;;2.90;99.90;;;;;;5034322;28;20029;-55
2021/11/26 01:23:44;;;;;;;2.40;0.93;;;3.00;99.90;;;;;;5047793;28;20047;-52
2021/11/26 01:26:10;;;;;;;1.77;0.63;;;3.00;99.90;;;;;;5038332;28;20033;-53
2021/11/26 01:28:35;;;;;;;1.02;0.60;;;3.00;99.90;;;;;;5034568;28;20049;-56
2021/11/26 01:31:01;;;;;;;4.05;0.88;;;3.00;99.90;;;;;;5029336;28;20024;-57
2021/11/26 01:33:28;;;;;;;2.47;0.85;;;3.00;99.90;;;;;;5029697;28;20033;-57
2021/11/26 01:35:54;;;;;;;3.53;0.60;;;3.00;99.90;;;;;;5047920;28;20545;-53
2021/11/26 01:38:21;;;;;;;3.50;0.95;;;3.10;99.90;;;;;;5049011;28;20102;-56
2021/11/26 01:40:48;;;;;;;2.65;1.10;;;3.10;99.90;;;;;;5048343;28;20045;-55
2021/11/26 01:43:15;;;;;;;3.47;1.15;;;3.10;99.90;;;;;;5042493;28;20267;-57
2021/11/26 01:45:45;;;;;;;3.50;1.10;;;3.10;99.90;;;;;;5044593;28;20025;-53
2021/11/26 01:48:11;;;;;;;1.33;0.95;;;3.00;99.90;;;;;;5016823;28;20060;-55
2021/11/26 01:50:37;;;;;;;2.78;0.90;;;3.10;99.90;;;;;;5010788;28;20033;-56
2021/11/26 01:53:03;;;;;;;4.03;0.90;;;3.10;99.90;;;;;;5037765;28;20033;-58
2021/11/26 01:55:29;;;;;;;2.90;1.25;;;3.00;99.90;;;;;;5032338;28;20036;-56
2021/11/26 01:57:55;;;;;;;7.15;1.10;;;3.10;99.90;;;;;;5027908;28;20035;-57
2021/11/26 02:00:25;;;;;;;6.68;1.08;;;3.10;99.90;;;;;;5022231;28;20108;-55
2021/11/26 02:02:51;;;;;;;3.00;1.00;;;3.10;99.90;;;;;;5027070;28;20029;-56
2021/11/26 02:05:16;;;;;;;2.72;1.42;;;3.00;99.90;;;;;;5038950;28;20107;-52
2021/11/26 02:07:42;;;;;;;2.90;1.02;;;3.10;99.90;;;;;;5028228;28;20033;-54
2021/11/26 02:10:10;;;;;;;4.55;1.20;;;3.00;99.90;;;;;;5029012;28;20029;-54
2021/11/26 02:12:35;;;;;;;8.70;1.73;;;3.10;99.90;;;;;;5044317;28;20036;-56
2021/11/26 02:15:01;;;;;;;8.40;1.63;;;3.10;99.90;;;;;;5046446;28;20408;-54
2021/11/26 02:17:27;;;;;;;3.92;1.42;;;3.10;99.90;;;;;;5046269;28;20032;-53
2021/11/26 02:19:58;;;;;;;6.70;1.42;;;3.10;99.90;;;;;;5047921;28;20029;-53
2021/11/26 02:22:24;;;;;;;5.68;1.80;;;3.10;99.90;;;;;;5057984;28;20036;-55
2021/11/26 02:24:50;;;;;;;6.85;1.58;;;3.10;99.90;;;;;;5068659;28;20066;-53
2021/11/26 02:27:17;;;;;;;2.70;1.80;;;3.10;99.90;;;;;;5050713;28;20158;-52
2021/11/26 02:29:43;;;;;;;6.95;2.35;;;3.10;99.90;;;;;;5041489;28;20033;-55
2021/11/26 02:32:09;;;;;;;2.97;1.77;;;3.20;99.90;;;;;;5032724;28;20025;-56
2021/11/26 02:34:35;;;;;;;11.20;2.83;;;3.20;99.90;;;;;;5034884;28;20056;-54
2021/11/26 02:37:00;;;;;;;6.35;2.80;;;3.10;99.90;;;;;;5035627;28;20497;-55
2021/11/26 02:39:26;;;;;;;7.18;2.40;;;3.20;99.90;;;;;;5027436;28;20035;-56
2021/11/26 02:41:52;;;;;;;4.47;2.30;;;3.10;99.90;;;;;;5028251;28;20040;-56
2021/11/26 02:44:17;;;;;;;3.33;2.47;;;3.10;99.90;;;;;;5010773;28;20072;-55
2021/11/26 02:46:43;;;;;;;4.43;2.63;;;3.10;99.90;;;;;;5035903;28;20151;-54
2021/11/26 02:49:09;;;;;;;4.70;2.63;;;3.10;99.90;;;;;;5047300;28;20116;-52
2021/11/26 02:51:35;;;;;;;8.32;3.33;;;3.10;99.90;;;;;;5028976;28;20037;-54
2021/11/26 02:54:00;;;;;;;8.45;2.95;;;3.20;99.90;;;;;;5033023;28;20037;-55
2021/11/26 02:56:26;;;;;;;5.22;2.92;;;3.20;99.90;;;;;;5018639;28;20045;-54
2021/11/26 02:58:54;;;;;;;4.55;2.78;;;3.20;99.90;;;;;;5047343;28;20028;-57
2021/11/26 03:01:19;;;;;;;9.00;3.72;;;3.20;99.90;;;;;;5015639;28;20525;-56
2021/11/26 03:03:45;;;;;;;9.20;3.30;;;3.10;99.90;;;;;;5042141;28;20065;-58
2021/11/26 03:06:11;;;;;;;5.75;3.22;;;3.10;99.90;;;;;;5046877;28;20080;-56
2021/11/26 03:08:36;;;;;;;5.32;3.33;;;3.10;99.90;;;;;;5047064;28;20092;-54
2021/11/26 03:11:03;;;;;;;9.85;3.28;;;3.20;99.90;;;;;;5047151;28;20048;-56
2021/11/26 03:13:30;;;;;;;8.55;3.50;;;3.20;99.90;;;;;;5046093;28;20021;-56
2021/11/26 03:15:56;;;;;;;7.90;4.40;;;3.20;99.90;;;;;;5031274;28;20076;-56
2021/11/26 03:18:22;;;;;;;10.57;4.93;;;3.20;99.90;;;;;;5042079;28;20041;-58
2021/11/26 03:20:50;;;;;;;6.15;3.78;;;3.20;99.90;;;;;;5042965;28;20405;-54
2021/11/26 03:23:17;;;;;;;6.15;3.47;;;3.20;99.90;;;;;;5063758;28;20476;-55
2021/11/26 03:25:43;;;;;;;5.35;3.67;;;3.20;99.90;;;;;;5034401;28;20109;-56
2021/11/26 03:28:13;;;;;;;6.18;3.95;;;3.20;99.90;;;;;;5027795;28;20097;-56
2021/11/26 03:30:39;;;;;;;9.82;4.10;;;3.20;99.90;;;;;;5029251;28;20021;-57
2021/11/26 03:33:05;;;;;;;7.68;4.22;;;3.20;99.90;;;;;;5043127;28;20029;-54
2021/11/26 03:35:31;;;;;;;5.97;3.83;;;3.20;99.90;;;;;;5014435;28;20553;-56
2021/11/26 03:37:57;;;;;;;7.40;3.95;;;3.20;99.90;;;;;;5031299;28;20440;-54
2021/11/26 03:40:24;;;;;;;8.15;4.38;;;3.20;99.90;;;;;;5021014;28;20017;-56
2021/11/26 03:42:51;;;;;;;6.80;4.20;;;3.20;99.90;;;;;;5049771;28;20049;-54
2021/11/26 03:45:19;;;;;;;7.78;3.60;;;3.20;99.90;;;;;;5037079;28;20068;-56
2021/11/26 03:47:45;;;;;;;5.97;3.83;;;3.20;99.90;;;;;;5031323;28;20524;-57
2021/11/26 03:50:11;;;;;;;7.40;4.55;;;3.20;99.90;;;;;;5031207;28;20033;-56
2021/11/26 03:52:38;;;;;;;9.00;4.38;;;3.20;99.90;;;;;;5030821;28;20029;-56
2021/11/26 03:55:06;;;;;;;8.38;4.05;;;3.20;99.90;;;;;;5030547;28;20112;-54
2021/11/26 03:57:31;;;;;;;6.57;4.45;;;3.20;99.90;;;;;;5031832;28;20060;-54
2021/11/26 03:59:57;;;;;;;11.25;5.47;;;3.20;99.90;;;;;;5030660;28;20509;-54
2021/11/26 04:02:23;;;;;;;7.57;5.30;;;3.20;99.90;;;;;;5031938;28;20061;-53
2021/11/26 04:04:48;;;;;;;12.18;5.60;;;3.20;99.90;;;;;;5047752;28;20173;-53
2021/11/26 04:07:14;;;;;;;8.90;5.15;;;3.20;99.90;;;;;;5041694;28;20022;-53
2021/11/26 04:09:39;;;;;;;14.20;5.78;;;3.20;99.90;;;;;;5031872;28;20481;-53
2021/11/26 04:12:06;;;;;;;10.40;6.45;;;3.20;99.90;;;;;;5030898;28;20033;-55
2021/11/26 04:14:31;;;;;;;7.70;5.43;;;3.20;99.90;;;;;;5031501;28;20120;-55
2021/11/26 04:16:57;;;;;;;10.20;5.22;;;3.20;99.90;;;;;;5035913;28;20227;-54
2021/11/26 04:19:22;;;;;;;8.77;6.30;;;3.20;99.90;;;;;;5049195;28;20024;-56
2021/11/26 04:21:48;;;;;;;9.73;6.18;;;3.20;99.90;;;;;;5026989;28;20032;-54
2021/11/26 04:24:14;;;;;;;9.15;6.13;;;3.20;99.90;;;;;;5036325;28;20052;-57
2021/11/26 04:26:39;;;;;;;9.05;5.85;;;3.20;99.90;;;;;;5046940;28;20069;-57
2021/11/26 04:29:05;;;;;;;10.13;6.13;;;3.20;99.90;;;;;;5029849;28;20481;-59
2021/11/26 04:31:30;;;;;;;9.52;6.00;;;3.20;99.90;;;;;;5022917;28;20124;-55
2021/11/26 04:33:56;;;;;;;8.88;5.70;;;3.20;99.90;;;;;;5018495;28;20513;-56
2021/11/26 04:36:23;;;;;;;10.27;6.22;;;3.20;99.90;;;;;;5035557;28;20082;-57
2021/11/26 04:38:49;;;;;;;7.70;5.40;;;3.20;99.90;;;;;;5036877;28;20029;-58
2021/11/26 04:41:14;;;;;;;8.00;6.22;;;3.20;99.90;;;;;;5030869;28;20122;-58
2021/11/26 04:43:40;;;;;;;7.38;5.97;;;3.10;99.90;;;;;;5031944;28;20052;-56
2021/11/26 04:46:06;;;;;;;10.30;7.13;;;3.10;99.90;;;;;;5042100;28;20485;-57
2021/11/26 04:48:31;;;;;;;11.25;7.90;;;3.10;99.90;;;;;;5046984;28;20564;-56
2021/11/26 04:50:57;;;;;;;10.95;8.52;;;3.10;99.90;;;;;;5034979;28;20016;-56
2021/11/26 04:53:23;;;;;;;13.23;7.97;;;3.20;99.90;;;;;;5022278;28;20113;-56
2021/11/26 04:55:49;;;;;;;10.82;8.38;;;3.20;99.90;;;;;;5029962;28;20091;-57
2021/11/26 04:58:15;;;;;;;10.70;8.70;;;3.10;99.90;;;;;;5044522;28;20079;-54
2021/11/26 05:00:42;;;;;;;12.70;8.30;;;3.20;99.90;;;;;;5050594;28;20029;-58
2021/11/26 05:03:07;;;;;;;13.43;9.35;;;3.20;99.90;;;;;;5049974;28;20051;-54
2021/11/26 05:05:34;;;;;;;15.77;9.80;;;3.20;99.90;;;;;;5048355;28;20382;-58
2021/11/26 05:07:59;;;;;;;13.77;9.60;;;3.20;99.90;;;;;;5038044;28;20021;-54
2021/11/26 05:10:26;;;;;;;21.15;10.70;;;3.20;99.90;;;;;;5031358;28;20024;-54
2021/11/26 05:12:55;;;;;;;15.68;10.02;;;3.20;99.90;;;;;;5042351;28;20459;-52
2021/11/26 05:15:26;;;;;;;14.90;10.18;;;3.20;99.90;;;;;;5037152;28;20500;-53
2021/11/26 05:17:53;;;;;;;18.42;11.73;;;3.20;99.90;;;;;;5018755;28;20033;-56
2021/11/26 05:20:19;;;;;;;14.65;9.95;;;3.20;99.90;;;;;;5036005;28;20025;-56
2021/11/26 05:22:45;;;;;;;15.02;11.60;;;3.20;99.90;;;;;;5047403;28;20040;-54
2021/11/26 05:25:11;;;;;;;11.55;10.05;;;3.20;99.90;;;;;;5041845;28;20448;-56
2021/11/26 05:27:36;;;;;;;16.27;10.50;;;3.20;99.90;;;;;;5038605;28;20105;-56
2021/11/26 05:30:03;;;;;;;13.13;11.23;;;3.20;99.90;;;;;;5029029;28;20026;-56
2021/11/26 05:32:29;;;;;;;18.98;12.07;;;3.20;99.90;;;;;;5016509;28;20025;-56
2021/11/26 05:34:54;;;;;;;20.13;13.18;;;3.10;99.90;;;;;;5024508;28;20527;-57
2021/11/26 05:37:20;;;;;;;18.80;13.10;;;3.10;99.90;;;;;;5030315;28;20104;-57
2021/11/26 05:39:46;;;;;;;20.42;13.68;;;3.10;99.90;;;;;;5048834;28;20040;-54
2021/11/26 05:42:11;;;;;;;21.52;12.25;;;3.10;99.90;;;;;;5049286;28;20068;-57
2021/11/26 05:44:37;;;;;;;19.10;13.60;;;3.10;99.90;;;;;;5038632;28;20037;-53
2021/11/26 05:47:03;;;;;;;15.45;12.20;;;3.10;99.90;;;;;;5029225;28;20033;-57
2021/11/26 05:49:28;;;;;;;24.30;13.52;;;3.10;99.90;;;;;;5028763;28;20060;-58
2021/11/26 05:51:54;;;;;;;27.00;15.18;;;3.10;99.90;;;;;;5025753;28;20029;-57
2021/11/26 05:54:19;;;;;;;19.63;13.73;;;3.10;99.90;;;;;;5043864;28;20048;-54
2021/11/26 05:56:45;;;;;;;18.15;14.40;;;3.10;99.90;;;;;;5040578;28;20043;-54
2021/11/26 05:59:10;;;;;;;18.90;14.73;;;3.10;99.90;;;;;;5028644;28;20440;-56
2021/11/26 06:01:36;;;;;;;19.23;14.20;;;3.00;99.90;;;;;;5023406;28;20035;-55
2021/11/26 06:04:02;;;;;;;19.05;15.52;;;3.00;99.90;;;;;;5035960;28;20029;-53
2021/11/26 06:06:27;;;;;;;21.08;14.35;;;3.00;99.90;;;;;;5048346;28;20017;-55
2021/11/26 06:08:54;;;;;;;27.45;16.17;;;3.00;99.90;;;;;;5046729;28;20529;-53
2021/11/26 06:11:20;;;;;;;23.10;15.95;;;3.00;99.90;;;;;;5028146;28;20104;-56
2021/11/26 06:13:45;;;;;;;26.02;16.60;;;3.00;99.90;;;;;;5045416;28;20052;-58
2021/11/26 06:16:11;;;;;;;27.95;16.67;;;3.00;99.90;;;;;;5014595;28;20048;-54
2021/11/26 06:18:36;;;;;;;24.60;16.95;;;3.00;99.90;;;;;;5031346;28;20052;-55
2021/11/26 06:21:02;;;;;;;26.65;18.67;;;3.00;99.90;;;;;;5038308;28;20032;-52
2021/11/26 06:23:28;;;;;;;29.00;18.35;;;3.00;99.90;;;;;;5051320;28;20492;-55
2021/11/26 06:25:53;;;;;;;29.48;18.20;;;3.00;99.90;;;;;;5046428;28;20033;-54
2021/11/26 06:28:19;;;;;;;34.10;18.83;;;3.00;99.90;;;;;;5043934;28;20026;-57
2021/11/26 06:30:44;;;;;;;27.38;18.67;;;3.10;99.90;;;;;;5027653;28;20026;-56
2021/11/26 06:33:10;;;;;;;28.45;18.60;;;3.00;99.90;;;;;;5035483;28;20116;-53
2021/11/26 06:35:36;;;;;;;33.85;20.13;;;3.10;99.90;;;;;;5047633;28;20037;-55
2021/11/26 06:38:02;;;;;;;34.42;20.55;;;3.10;99.90;;;;;;5040248;28;20029;-56
2021/11/26 06:40:28;;;;;;;34.63;19.92;;;3.10;99.90;;;;;;5023082;28;20564;-56
2021/11/26 06:42:53;;;;;;;35.38;20.25;;;3.10;99.90;;;;;;5047451;28;20025;-54
2021/11/26 06:45:19;;;;;;;35.30;20.27;;;3.00;99.90;;;;;;5047467;28;20562;-57
2021/11/26 06:47:48;;;;;;;34.13;20.23;;;3.00;99.90;;;;;;5042436;28;20106;-57
2021/11/26 06:50:15;;;;;;;32.95;21.20;;;3.10;99.90;;;;;;5039181;28;20036;-52
2021/11/26 06:52:41;;;;;;;32.75;19.40;;;3.10;99.90;;;;;;5047850;28;20048;-58
2021/11/26 06:55:08;;;;;;;35.22;20.25;;;3.10;99.90;;;;;;5045184;28;20057;-54
2021/11/26 06:57:34;;;;;;;32.58;20.15;;;3.00;99.90;;;;;;5009259;28;20603;-54
2021/11/26 07:00:00;;;;;;;34.20;19.40;;;3.10;99.90;;;;;;5011506;28;20064;-54
2021/11/26 07:02:25;;;;;;;34.55;19.90;;;3.10;99.90;;;;;;5066429;23;20068;-57
2021/11/26 07:04:51;;;;;;;37.58;20.20;;;3.10;99.90;;;;;;5067085;28;20040;-57
2021/11/26 07:07:17;;;;;;;36.58;21.63;;;3.10;99.90;;;;;;5062853;28;20794;-55
2021/11/26 07:09:43;;;;;;;34.60;19.20;;;3.10;99.90;;;;;;5052508;28;20032;-57
2021/11/26 07:12:11;;;;;;;38.17;20.92;;;3.10;99.90;;;;;;5049444;28;20047;-56
2021/11/26 07:14:39;;;;;;;35.10;20.48;;;3.10;99.90;;;;;;5055568;28;20044;-56
2021/11/26 07:17:05;;;;;;;37.47;19.60;;;3.10;99.90;;;;;;5047324;28;20599;-57
2021/11/26 07:19:31;;;;;;;35.30;20.27;;;3.10;99.90;;;;;;5047154;28;20107;-58
2021/11/26 07:21:56;;;;;;;33.67;19.80;;;3.10;99.90;;;;;;5035223;28;20057;-54
2021/11/26 07:24:22;;;;;;;39.83;19.95;;;3.10;99.90;;;;;;5047422;28;20029;-53
2021/11/26 07:26:47;;;;;;;39.15;20.73;;;3.10;99.90;;;;;;5047260;28;20029;-55
2021/11/26 07:29:13;;;;;;;35.88;20.58;;;3.20;99.90;;;;;;5046181;28;20025;-56
2021/11/26 07:31:38;;;;;;;30.95;18.30;;;3.20;99.90;;;;;;5047481;28;20037;-55
2021/11/26 07:34:04;;;;;;;35.97;20.23;;;3.20;99.90;;;;;;5047493;28;20044;-58
2021/11/26 07:36:30;;;;;;;33.35;18.25;;;3.20;99.90;;;;;;5047668;28;20457;-55
2021/11/26 07:38:55;;;;;;;30.00;18.17;;;3.20;99.90;;;;;;5046788;28;20390;-56
2021/11/26 07:41:22;;;;;;;29.92;16.98;;;3.20;99.90;;;;;;5047234;28;20029;-55
2021/11/26 07:43:48;;;;;;;30.08;18.35;;;3.20;99.90;;;;;;5047002;28;20099;-57
2021/11/26 07:46:13;;;;;;;35.80;19.45;;;3.20;99.90;;;;;;5047720;28;20032;-54
2021/11/26 07:48:39;;;;;;;28.73;17.67;;;3.20;99.90;;;;;;5046788;28;20047;-57
2021/11/26 07:51:05;;;;;;;33.58;18.23;;;3.20;99.90;;;;;;5062672;28;20024;-56
2021/11/26 07:53:32;;;;;;;37.55;18.92;;;3.20;99.90;;;;;;5066968;28;20036;-58
2021/11/26 07:55:58;;;;;;;25.90;15.90;;;3.30;99.90;;;;;;5033864;28;20025;-54
2021/11/26 07:58:24;;;;;;;31.45;16.92;;;3.30;99.90;;;;;;5028512;28;20044;-54
2021/11/26 08:00:49;;;;;;;31.67;17.40;;;3.30;99.90;;;;;;5058560;28;20047;-56
2021/11/26 08:03:17;;;;;;;29.73;16.17;;;3.30;99.90;;;;;;5066598;28;20043;-58
2021/11/26 08:05:43;;;;;;;27.95;16.58;;;3.30;99.90;;;;;;5062415;28;20107;-56
2021/11/26 08:08:09;;;;;;;29.60;15.63;;;3.30;99.90;;;;;;5066344;28;20825;-56
2021/11/26 08:10:37;;;;;;;24.30;15.30;;;3.30;99.90;;;;;;5066726;28;20059;-56
2021/11/26 08:13:03;;;;;;;29.08;15.45;;;3.30;99.90;;;;;;5048565;28;20475;-55
2021/11/26 08:15:31;;;;;;;32.03;16.58;;;3.30;99.90;;;;;;5062468;28;20079;-55
2021/11/26 08:17:57;;;;;;;30.02;15.35;;;3.40;99.90;;;;;;5067679;28;20090;-54
2021/11/26 08:20:23;;;;;;;25.45;15.57;;;3.40;99.90;;;;;;5070638;28;20082;-55
2021/11/26 08:22:49;;;;;;;24.55;14.70;;;3.40;99.90;;;;;;5070127;28;20024;-57
2021/11/26 08:25:17;;;;;;;23.33;14.45;;;3.40;99.90;;;;;;5061387;28;20025;-56
2021/11/26 08:27:43;;;;;;;25.85;14.05;;;3.40;99.90;;;;;;5051113;28;20052;-54
2021/11/26 08:30:09;;;;;;;34.38;15.48;;;3.40;99.90;;;;;;5050279;28;20025;-57
2021/11/26 08:32:36;;;;;;;25.30;13.65;;;3.50;99.90;;;;;;5051768;28;20612;-56
2021/11/26 08:35:02;;;;;;;24.13;14.55;;;3.50;99.90;;;;;;5049909;28;20021;-57
2021/11/26 08:37:28;;;;;;;20.50;13.15;;;3.50;99.90;;;;;;5050547;28;20037;-57
2021/11/26 08:39:54;;;;;;;23.35;14.02;;;3.50;99.90;;;;;;5050151;28;20104;-57
2021/11/26 08:42:19;;;;;;;23.35;13.10;;;3.50;99.90;;;;;;5050241;28;20049;-56
2021/11/26 08:44:45;;;;;;;22.00;13.00;;;3.50;99.90;;;;;;5050531;28;20386;-56
2021/11/26 08:47:10;;;;;;;24.23;13.40;;;3.60;99.90;;;;;;5050470;28;20188;-56
2021/11/26 08:49:36;;;;;;;29.00;14.35;;;3.60;99.90;;;;;;5050253;28;20075;-58
2021/11/26 08:52:02;;;;;;;20.67;13.25;;;3.60;99.90;;;;;;5050420;28;20485;-54
2021/11/26 08:54:28;;;;;;;23.63;14.57;;;3.60;99.90;;;;;;5065305;28;20033;-55
2021/11/26 08:56:57;;;;;;;28.35;14.38;;;3.60;99.90;;;;;;5070383;28;20024;-54
2021/11/26 08:59:26;;;;;;;22.15;13.65;;;3.70;99.90;;;;;;5069969;28;20025;-55
2021/11/26 09:01:53;;;;;;;19.58;12.52;;;3.70;99.90;;;;;;5069237;28;20047;-55
2021/11/26 09:04:21;;;;;;;27.42;14.13;;;3.70;99.90;;;;;;5069045;28;20035;-55
2021/11/26 09:06:46;;;;;;;22.88;13.93;;;3.70;99.90;;;;;;5069617;28;20028;-55
2021/11/26 09:09:12;;;;;;;23.65;13.38;;;3.70;99.90;;;;;;5067756;28;20028;-56
2021/11/26 09:11:38;;;;;;;22.70;14.20;;;3.70;99.90;;;;;;5049772;28;20553;-56
2021/11/26 09:14:05;;;;;;;24.52;15.38;;;3.70;99.90;;;;;;5070232;28;20031;-56
2021/11/26 09:16:32;;;;;;;23.38;14.02;;;3.70;99.90;;;;;;5060027;28;20025;-56
2021/11/26 09:18:57;;;;;;;21.35;12.52;;;3.70;99.90;;;;;;5050184;28;20060;-53
2021/11/26 09:21:23;;;;;;;23.30;12.73;;;3.80;99.90;;;;;;5069272;28;20052;-57
2021/11/26 09:23:49;;;;;;;21.20;13.95;;;3.80;99.90;;;;;;5069621;28;20025;-55
2021/11/26 09:26:15;;;;;;;20.45;13.02;;;3.80;99.90;;;;;;5057864;28;20447;-57
2021/11/26 09:28:41;;;;;;;23.30;13.00;;;3.80;99.90;;;;;;5047793;28;20044;-51
2021/11/26 09:31:07;;;;;;;23.75;12.60;;;3.80;99.90;;;;;;5047923;28;20032;-54
2021/11/26 09:33:35;;;;;;;19.73;12.18;;;3.80;99.90;;;;;;5048900;28;20029;-55
2021/11/26 09:36:06;;;;;;;23.00;13.00;;;3.90;99.90;;;;;;5066465;28;20020;-56
2021/11/26 09:38:33;;;;;;;17.92;11.25;;;3.90;99.90;;;;;;5068569;28;20013;-54
2021/11/26 09:41:01;;;;;;;23.67;12.85;;;3.90;99.90;;;;;;5050645;28;20665;-56
2021/11/26 09:43:27;;;;;;;17.67;11.85;;;3.90;99.90;;;;;;5050455;28;20020;-55
2021/11/26 09:45:53;;;;;;;17.77;11.23;;;3.90;99.90;;;;;;5068902;28;20492;-56
2021/11/26 09:48:18;;;;;;;19.10;10.85;;;3.90;99.90;;;;;;5068258;28;20031;-53
2021/11/26 09:50:44;;;;;;;19.85;11.50;;;4.00;99.90;;;;;;5068616;28;20135;-56
2021/11/26 09:53:22;;;;;;;17.13;10.90;;;4.00;99.90;;;;;;5068609;28;20032;-56
2021/11/26 09:55:50;;;;;;;17.70;10.95;;;4.00;99.90;;;;;;5068609;28;20017;-55
2021/11/26 09:58:16;;;;;;;22.15;10.40;;;4.00;99.90;;;;;;5068269;28;20036;-56
2021/11/26 10:00:43;;;;;;;18.52;10.27;;;4.00;99.90;;;;;;5068687;28;20499;-55
2021/11/26 10:03:09;;;;;;;18.27;9.88;;;4.00;99.90;;;;;;5068350;28;20048;-56
2021/11/26 10:05:36;;;;;;;24.27;11.23;;;4.00;99.90;;;;;;5068628;28;20020;-56
2021/11/26 10:08:03;;;;;;;18.40;11.27;;;4.10;99.90;;;;;;5067872;28;20051;-57
2021/11/26 10:10:37;;;;;;;19.95;11.48;;;4.10;99.90;;;;;;5068271;28;20028;-57
2021/11/26 10:13:07;;;;;;;16.73;10.23;;;4.20;99.90;;;;;;5068636;28;20032;-56
2021/11/26 10:15:50;;;;;;;16.95;10.60;;;4.10;99.90;;;;;;5050794;28;20143;-54
2021/11/26 10:18:18;;;;;;;18.95;10.45;;;4.20;99.90;;;;;;5068108;28;20024;-54
2021/11/26 10:20:56;;;;;;;16.10;11.20;;;4.20;99.90;;;;;;5049967;28;20028;-54
2021/11/26 10:23:25;;;;;;;17.40;10.48;;;4.20;99.90;;;;;;5048100;28;20035;-57
2021/11/26 10:25:51;;;;;;;16.73;10.88;;;4.20;99.90;;;;;;5048139;28;20017;-54
2021/11/26 10:28:17;;;;;;;16.98;10.45;;;4.30;99.90;;;;;;5047892;28;20017;-57
2021/11/26 10:30:46;;;;;;;24.30;11.70;;;4.30;99.90;;;;;;5030264;28;20445;-57
2021/11/26 10:33:25;;;;;;;20.42;11.35;;;4.30;99.90;;;;;;5047654;28;20488;-54
2021/11/26 10:36:00;;;;;;;13.32;9.80;;;4.30;99.90;;;;;;5048013;28;20028;-57
2021/11/26 10:38:27;;;;;;;18.73;10.98;;;4.30;99.90;;;;;;5047610;28;20025;-56
2021/11/26 10:41:03;;;;;;;19.40;10.32;;;4.30;99.90;;;;;;5047601;28;20515;-58
2021/11/26 10:43:40;;;;;;;;;;;4.30;99.90;;;;;;5048538;28;20032;-55
2021/11/26 10:59:29;;;;;;;15.25;8.63;;;4.40;99.90;;;;;;5048827;28;20044;-56
2021/11/26 11:01:55;;;;;;;11.95;8.40;;;4.50;99.90;;;;;;5048276;28;20579;-56
2021/11/26 11:04:23;;;;;;;12.57;7.88;;;4.50;99.90;;;;;;5050804;28;20657;-58
2021/11/26 11:07:05;;;;;;;13.75;7.97;;;4.50;99.90;;;;;;5068212;28;20457;-56
2021/11/26 11:09:45;;;;;;;12.80;8.75;;;4.40;99.90;;;;;;5067505;28;20708;-55
2021/11/26 11:12:12;;;;;;;18.83;8.45;;;4.50;99.90;;;;;;5068051;28;20199;-58
2021/11/26 11:14:40;;;;;;;14.63;7.80;;;4.50;99.90;;;;;;5068393;28;20032;-58
2021/11/26 11:17:07;;;;;;;13.23;8.18;;;4.50;99.90;;;;;;5067942;28;20021;-59
2021/11/26 11:19:33;;;;;;;14.73;8.57;;;4.40;99.90;;;;;;5068057;28;20021;-58
2021/11/26 11:21:59;;;;;;;14.80;8.85;;;4.50;99.90;;;;;;5068019;28;20020;-58
2021/11/26 11:24:27;;;;;;;13.43;8.32;;;4.50;99.90;;;;;;5066557;28;20028;-59
2021/11/26 11:26:54;;;;;;;16.10;8.57;;;4.40;99.90;;;;;;5068163;28;20028;-59
2021/11/26 11:29:25;;;;;;;17.30;8.48;;;4.50;99.90;;;;;;5068206;28;20139;-58
2021/11/26 11:31:54;;;;;;;14.50;9.35;;;4.50;99.90;;;;;;5067306;28;20428;-56
2021/11/26 11:34:22;;;;;;;14.90;8.98;;;4.50;99.90;;;;;;5067121;28;20017;-54
2021/11/26 11:36:52;;;;;;;18.23;10.15;;;4.50;99.90;;;;;;5068119;28;20028;-57
2021/11/26 11:39:18;;;;;;;15.88;9.20;;;4.50;99.90;;;;;;5067497;28;20120;-58
2021/11/26 11:41:49;;;;;;;18.13;9.85;;;4.60;99.90;;;;;;5048414;28;20104;-58
2021/11/26 11:44:44;;;;;;;14.45;9.38;;;4.60;99.90;;;;;;5067267;28;20029;-58
2021/11/26 11:47:20;;;;;;;18.95;8.73;;;4.60;99.90;;;;;;5058884;28;20124;-57
2021/11/26 11:49:47;;;;;;;25.00;12.43;;;4.60;99.90;;;;;;5065985;28;20107;-59
2021/11/26 11:52:14;;;;;;;15.07;9.15;;;4.60;99.90;;;;;;5067755;28;20027;-58
2021/11/26 11:54:48;;;;;;;23.30;11.05;;;4.60;99.90;;;;;;5049803;28;20033;-57
2021/11/26 11:57:25;;;;;;;20.52;11.82;;;4.60;99.90;;;;;;5051088;28;20033;-57
2021/11/26 11:59:52;;;;;;;16.17;9.80;;;4.70;99.90;;;;;;5069902;28;20028;-58
2021/11/26 12:02:25;;;;;;;16.40;10.10;;;4.80;99.90;;;;;;5065714;28;20033;-57
2021/11/26 12:04:53;;;;;;;19.02;10.10;;;4.70;99.90;;;;;;5070307;28;20162;-55
2021/11/26 12:07:28;;;;;;;27.40;17.10;;;4.70;99.90;;;;;;5069496;28;20093;-55
2021/11/26 12:10:02;;;;;;;19.02;10.20;;;4.80;99.90;;;;;;5070621;28;20288;-55
2021/11/26 12:12:28;;;;;;;15.40;10.05;;;4.80;99.90;;;;;;5070481;28;20085;-58
2021/11/26 12:14:55;;;;;;;18.95;14.57;;;4.80;99.90;;;;;;5070183;28;20107;-58
2021/11/26 12:17:31;;;;;;;19.60;11.63;;;4.90;99.90;;;;;;5070283;28;20112;-57
2021/11/26 12:20:17;;;;;;;15.57;9.52;;;4.90;99.90;;;;;;5070272;28;20029;-55
2021/11/26 12:22:48;;;;;;;18.00;9.93;;;4.90;99.90;;;;;;5070027;28;20093;-56
2021/11/26 12:25:29;;;;;;;21.08;9.65;;;4.90;99.90;;;;;;5070496;28;20032;-55
2021/11/26 12:27:57;;;;;;;16.73;10.27;;;4.90;99.90;;;;;;5050142;28;20025;-57
2021/11/26 12:30:23;;;;;;;14.52;9.77;;;4.90;99.90;;;;;;5049445;28;20044;-58
2021/11/26 12:32:49;;;;;;;16.40;10.50;;;4.90;99.90;;;;;;5069369;28;20059;-56
2021/11/26 12:35:15;;;;;;;20.23;10.82;;;4.90;99.90;;;;;;5069024;28;20039;-57
2021/11/26 12:37:41;;;;;;;16.13;9.90;;;4.90;99.90;;;;;;5069522;28;20569;-55
2021/11/26 12:40:11;;;;;;;17.00;10.45;;;4.90;99.90;;;;;;5070072;28;20063;-57
2021/11/26 12:42:38;;;;;;;15.30;9.75;;;4.90;99.90;;;;;;5070448;28;20024;-55
2021/11/26 12:45:11;;;;;;;16.25;9.27;;;5.00;99.90;;;;;;5070383;28;20043;-55
2021/11/26 12:47:39;;;;;;;17.02;10.75;;;5.00;99.90;;;;;;5051642;28;20020;-55
2021/11/26 12:53:07;;;;;;;19.25;9.98;;;5.00;99.90;;;;;;5069804;28;20464;-58
2021/11/26 12:55:35;;;;;;;19.52;9.80;;;5.00;99.90;;;;;;5069519;28;20028;-53
2021/11/26 12:58:02;;;;;;;20.50;9.90;;;5.00;99.90;;;;;;5069773;28;20036;-57
2021/11/26 13:00:28;;;;;;;16.70;9.10;;;5.00;99.90;;;;;;5069984;28;20395;-54
2021/11/26 13:03:04;;;;;;;17.50;10.00;;;5.00;99.90;;;;;;5091003;23;20102;-57